sensor_id;sensor_type;location;lat;lon;timestamp;temperature;humidity
22925;DHT22;11628;51.072;3.712;2023-06-22T00:00:55;21.80;99.90
22925;DHT22;11628;51.072;3.712;2023-06-22T00:03:23;21.70;99.90
22925;DHT22;11628;51.072;3.712;2023-06-22T00:05:50;21.70;99.90
22925;DHT22;11628;51.072;3.712;2023-06-22T00:08:16;21.70;99.90
22925;DHT22;11628;51.072;3.712;2023-06-22T00:10:43;21.70;99.90
22925;DHT22;11628;51.072;3.712;2023-06-22T00:13:10;21.60;99.90
22925;DHT22;11628;51.072;3.712;2023-06-22T00:15:37;21.60;99.90
22925;DHT22;11628;51.072;3.712;2023-06-22T00:18:04;21.70;99.90
22925;DHT22;11628;51.072;3.712;2023-06-22T00:20:30;21.70;99.90
22925;DHT22;11628;51.072;3.712;2023-06-22T00:22:59;21.70;99.90
22925;DHT22;11628;51.072;3.712;2023-06-22T00:25:25;21.70;99.90
22925;DHT22;11628;51.072;3.712;2023-06-22T00:27:51;21.60;99.90
22925;DHT22;11628;51.072;3.712;2023-06-22T00:30:17;21.60;99.90
22925;DHT22;11628;51.072;3.712;2023-06-22T00:32:44;21.60;99.90
22925;DHT22;11628;51.072;3.712;2023-06-22T00:35:10;21.60;99.90
22925;DHT22;11628;51.072;3.712;2023-06-22T00:37:36;21.60;99.90
22925;DHT22;11628;51.072;3.712;2023-06-22T00:40:06;21.70;99.90
22925;DHT22;11628;51.072;3.712;2023-06-22T00:42:32;21.70;99.90
22925;DHT22;11628;51.072;3.712;2023-06-22T00:44:58;21.70;99.90
22925;DHT22;11628;51.072;3.712;2023-06-22T00:47:24;21.70;99.90
22925;DHT22;11628;51.072;3.712;2023-06-22T00:49:50;21.80;99.90
22925;DHT22;11628;51.072;3.712;2023-06-22T00:52:22;21.90;99.90
22925;DHT22;11628;51.072;3.712;2023-06-22T00:54:53;21.90;99.90
22925;DHT22;11628;51.072;3.712;2023-06-22T00:57:19;21.90;99.90
22925;DHT22;11628;51.072;3.712;2023-06-22T00:59:46;21.80;99.90
22925;DHT22;11628;51.072;3.712;2023-06-22T01:02:13;21.80;99.90
22925;DHT22;11628;51.072;3.712;2023-06-22T01:04:40;21.70;99.90
22925;DHT22;11628;51.072;3.712;2023-06-22T01:12:44;21.50;99.90
22925;DHT22;11628;51.072;3.712;2023-06-22T01:15:16;21.50;99.90
22925;DHT22;11628;51.072;3.712;2023-06-22T01:17:45;21.50;99.90
22925;DHT22;11628;51.072;3.712;2023-06-22T01:20:13;21.50;99.90
22925;DHT22;11628;51.072;3.712;2023-06-22T01:23:15;21.40;99.90
22925;DHT22;11628;51.072;3.712;2023-06-22T01:28:50;21.50;99.90
22925;DHT22;11628;51.072;3.712;2023-06-22T01:31:24;21.50;99.90
22925;DHT22;11628;51.072;3.712;2023-06-22T01:33:53;21.50;99.90
22925;DHT22;11628;51.072;3.712;2023-06-22T01:36:21;21.50;99.90
22925;DHT22;11628;51.072;3.712;2023-06-22T01:38:49;21.50;99.90
22925;DHT22;11628;51.072;3.712;2023-06-22T01:41:16;21.50;99.90
22925;DHT22;11628;51.072;3.712;2023-06-22T01:43:50;21.50;99.90
22925;DHT22;11628;51.072;3.712;2023-06-22T01:46:19;21.50;99.90
22925;DHT22;11628;51.072;3.712;2023-06-22T01:48:46;21.60;99.90
22925;DHT22;11628;51.072;3.712;2023-06-22T01:51:13;21.60;99.90
22925;DHT22;11628;51.072;3.712;2023-06-22T01:53:39;21.80;99.90
22925;DHT22;11628;51.072;3.712;2023-06-22T01:56:05;21.90;99.90
22925;DHT22;11628;51.072;3.712;2023-06-22T01:58:58;22.00;99.90
22925;DHT22;11628;51.072;3.712;2023-06-22T02:01:28;22.00;99.90
22925;DHT22;11628;51.072;3.712;2023-06-22T02:04:17;21.80;99.90
22925;DHT22;11628;51.072;3.712;2023-06-22T02:06:54;21.70;99.90
22925;DHT22;11628;51.072;3.712;2023-06-22T02:09:22;21.60;99.90
22925;DHT22;11628;51.072;3.712;2023-06-22T02:15:01;21.30;99.90
22925;DHT22;11628;51.072;3.712;2023-06-22T02:17:51;21.20;99.90
22925;DHT22;11628;51.072;3.712;2023-06-22T02:26:44;21.10;99.90
22925;DHT22;11628;51.072;3.712;2023-06-22T02:29:13;20.90;99.90
22925;DHT22;11628;51.072;3.712;2023-06-22T02:31:38;20.90;99.90
22925;DHT22;11628;51.072;3.712;2023-06-22T02:34:07;21.00;99.90
22925;DHT22;11628;51.072;3.712;2023-06-22T02:36:33;20.90;99.90
22925;DHT22;11628;51.072;3.712;2023-06-22T02:39:01;20.90;99.90
22925;DHT22;11628;51.072;3.712;2023-06-22T02:41:30;20.80;99.90
22925;DHT22;11628;51.072;3.712;2023-06-22T03:01:35;20.50;99.90
22925;DHT22;11628;51.072;3.712;2023-06-22T03:24:21;20.40;99.90
22925;DHT22;11628;51.072;3.712;2023-06-22T03:26:49;20.50;99.90
22925;DHT22;11628;51.072;3.712;2023-06-22T03:29:17;20.40;99.90
22925;DHT22;11628;51.072;3.712;2023-06-22T03:31:52;20.40;99.90
22925;DHT22;11628;51.072;3.712;2023-06-22T03:34:27;20.40;99.90
22925;DHT22;11628;51.072;3.712;2023-06-22T03:37:00;20.30;99.90
22925;DHT22;11628;51.072;3.712;2023-06-22T03:39:45;20.30;99.90
22925;DHT22;11628;51.072;3.712;2023-06-22T03:42:11;20.40;99.90
22925;DHT22;11628;51.072;3.712;2023-06-22T03:44:37;20.60;99.90
22925;DHT22;11628;51.072;3.712;2023-06-22T03:47:07;20.80;99.90
22925;DHT22;11628;51.072;3.712;2023-06-22T04:20:20;20.50;99.90
22925;DHT22;11628;51.072;3.712;2023-06-22T04:22:50;20.50;99.90
22925;DHT22;11628;51.072;3.712;2023-06-22T04:25:17;20.50;99.90
22925;DHT22;11628;51.072;3.712;2023-06-22T04:27:43;20.60;99.90
22925;DHT22;11628;51.072;3.712;2023-06-22T04:30:13;20.60;99.90
22925;DHT22;11628;51.072;3.712;2023-06-22T04:32:41;20.60;99.90
22925;DHT22;11628;51.072;3.712;2023-06-22T04:41:30;20.90;99.90
22925;DHT22;11628;51.072;3.712;2023-06-22T04:44:02;21.00;99.90
22925;DHT22;11628;51.072;3.712;2023-06-22T04:50:12;21.50;99.90
22925;DHT22;11628;51.072;3.712;2023-06-22T05:00:36;21.70;99.90
22925;DHT22;11628;51.072;3.712;2023-06-22T05:03:02;21.90;99.90
22925;DHT22;11628;51.072;3.712;2023-06-22T05:05:29;21.90;99.90
22925;DHT22;11628;51.072;3.712;2023-06-22T05:08:00;21.90;99.90
22925;DHT22;11628;51.072;3.712;2023-06-22T05:10:35;22.00;99.90
22925;DHT22;11628;51.072;3.712;2023-06-22T05:13:06;22.20;99.90
22925;DHT22;11628;51.072;3.712;2023-06-22T05:15:31;22.40;99.90
22925;DHT22;11628;51.072;3.712;2023-06-22T05:18:02;22.70;99.90
22925;DHT22;11628;51.072;3.712;2023-06-22T05:20:30;22.90;99.90
22925;DHT22;11628;51.072;3.712;2023-06-22T05:22:56;23.20;99.90
22925;DHT22;11628;51.072;3.712;2023-06-22T05:25:22;23.40;99.90
22925;DHT22;11628;51.072;3.712;2023-06-22T05:27:47;23.50;99.90
22925;DHT22;11628;51.072;3.712;2023-06-22T05:30:13;23.70;99.90
22925;DHT22;11628;51.072;3.712;2023-06-22T05:32:39;23.90;99.90
22925;DHT22;11628;51.072;3.712;2023-06-22T05:35:05;24.10;99.90
22925;DHT22;11628;51.072;3.712;2023-06-22T05:37:31;24.30;99.90
22925;DHT22;11628;51.072;3.712;2023-06-22T05:39:58;24.30;99.90
22925;DHT22;11628;51.072;3.712;2023-06-22T05:42:23;24.40;99.90
22925;DHT22;11628;51.072;3.712;2023-06-22T05:44:52;24.60;99.90
22925;DHT22;11628;51.072;3.712;2023-06-22T05:47:18;24.70;99.90
22925;DHT22;11628;51.072;3.712;2023-06-22T05:49:44;24.80;99.90
22925;DHT22;11628;51.072;3.712;2023-06-22T05:52:10;24.80;99.90
22925;DHT22;11628;51.072;3.712;2023-06-22T05:54:35;24.80;99.90
22925;DHT22;11628;51.072;3.712;2023-06-22T05:57:01;24.80;99.90
22925;DHT22;11628;51.072;3.712;2023-06-22T05:59:27;24.90;99.90
22925;DHT22;11628;51.072;3.712;2023-06-22T06:01:52;25.00;99.90
22925;DHT22;11628;51.072;3.712;2023-06-22T06:04:18;25.10;99.90
22925;DHT22;11628;51.072;3.712;2023-06-22T06:06:44;25.20;99.90
22925;DHT22;11628;51.072;3.712;2023-06-22T06:09:10;25.30;99.90
22925;DHT22;11628;51.072;3.712;2023-06-22T06:11:37;25.40;99.90
22925;DHT22;11628;51.072;3.712;2023-06-22T06:14:03;25.50;99.90
22925;DHT22;11628;51.072;3.712;2023-06-22T06:16:29;25.60;99.90
22925;DHT22;11628;51.072;3.712;2023-06-22T06:18:54;25.60;99.90
22925;DHT22;11628;51.072;3.712;2023-06-22T06:21:21;25.70;99.90
22925;DHT22;11628;51.072;3.712;2023-06-22T06:23:47;25.80;99.90
22925;DHT22;11628;51.072;3.712;2023-06-22T06:26:13;25.80;99.90
22925;DHT22;11628;51.072;3.712;2023-06-22T06:28:42;25.90;99.90
22925;DHT22;11628;51.072;3.712;2023-06-22T06:31:07;25.90;99.90
22925;DHT22;11628;51.072;3.712;2023-06-22T06:33:34;26.00;99.90
22925;DHT22;11628;51.072;3.712;2023-06-22T06:36:00;26.10;99.90
22925;DHT22;11628;51.072;3.712;2023-06-22T06:38:27;26.30;99.90
22925;DHT22;11628;51.072;3.712;2023-06-22T06:40:53;26.30;99.90
22925;DHT22;11628;51.072;3.712;2023-06-22T06:43:19;26.30;99.90
22925;DHT22;11628;51.072;3.712;2023-06-22T06:45:45;26.50;99.90
22925;DHT22;11628;51.072;3.712;2023-06-22T06:48:10;26.60;99.90
22925;DHT22;11628;51.072;3.712;2023-06-22T06:50:36;26.60;99.90
22925;DHT22;11628;51.072;3.712;2023-06-22T06:53:01;26.70;99.90
22925;DHT22;11628;51.072;3.712;2023-06-22T06:55:27;26.80;99.90
22925;DHT22;11628;51.072;3.712;2023-06-22T06:57:58;26.80;99.90
22925;DHT22;11628;51.072;3.712;2023-06-22T07:00:25;26.90;99.90
22925;DHT22;11628;51.072;3.712;2023-06-22T07:02:51;27.00;99.90
22925;DHT22;11628;51.072;3.712;2023-06-22T07:05:16;27.00;99.90
22925;DHT22;11628;51.072;3.712;2023-06-22T07:07:42;26.90;99.90
22925;DHT22;11628;51.072;3.712;2023-06-22T07:10:08;27.00;99.90
22925;DHT22;11628;51.072;3.712;2023-06-22T07:12:34;27.10;99.90
22925;DHT22;11628;51.072;3.712;2023-06-22T07:15:05;27.00;99.90
22925;DHT22;11628;51.072;3.712;2023-06-22T07:17:33;27.00;99.90
22925;DHT22;11628;51.072;3.712;2023-06-22T07:20:00;26.90;99.90
22925;DHT22;11628;51.072;3.712;2023-06-22T07:22:25;26.90;99.90
22925;DHT22;11628;51.072;3.712;2023-06-22T07:24:51;26.90;99.90
22925;DHT22;11628;51.072;3.712;2023-06-22T07:27:17;27.10;99.90
22925;DHT22;11628;51.072;3.712;2023-06-22T07:29:45;27.10;99.90
22925;DHT22;11628;51.072;3.712;2023-06-22T07:32:11;27.20;99.90
22925;DHT22;11628;51.072;3.712;2023-06-22T07:34:37;27.30;99.90
22925;DHT22;11628;51.072;3.712;2023-06-22T07:37:04;27.50;99.90
22925;DHT22;11628;51.072;3.712;2023-06-22T07:39:30;27.70;99.90
22925;DHT22;11628;51.072;3.712;2023-06-22T07:41:56;27.70;99.90
22925;DHT22;11628;51.072;3.712;2023-06-22T07:44:21;27.80;99.90
22925;DHT22;11628;51.072;3.712;2023-06-22T07:46:47;28.10;99.90
22925;DHT22;11628;51.072;3.712;2023-06-22T07:49:13;28.20;99.90
22925;DHT22;11628;51.072;3.712;2023-06-22T07:51:39;28.30;99.90
22925;DHT22;11628;51.072;3.712;2023-06-22T07:54:04;28.40;99.90
22925;DHT22;11628;51.072;3.712;2023-06-22T07:56:30;28.40;99.90
22925;DHT22;11628;51.072;3.712;2023-06-22T07:58:56;28.50;99.90
22925;DHT22;11628;51.072;3.712;2023-06-22T08:01:23;28.60;99.90
22925;DHT22;11628;51.072;3.712;2023-06-22T08:03:49;28.60;99.90
22925;DHT22;11628;51.072;3.712;2023-06-22T08:06:15;28.70;99.90
22925;DHT22;11628;51.072;3.712;2023-06-22T08:08:42;28.80;99.90
22925;DHT22;11628;51.072;3.712;2023-06-22T08:11:08;28.90;99.90
22925;DHT22;11628;51.072;3.712;2023-06-22T08:13:34;29.00;99.90
22925;DHT22;11628;51.072;3.712;2023-06-22T08:16:00;28.90;99.90
22925;DHT22;11628;51.072;3.712;2023-06-22T08:18:26;28.90;99.90
22925;DHT22;11628;51.072;3.712;2023-06-22T08:20:51;28.80;99.90
22925;DHT22;11628;51.072;3.712;2023-06-22T08:23:18;28.80;99.90
22925;DHT22;11628;51.072;3.712;2023-06-22T08:25:43;28.90;99.90
22925;DHT22;11628;51.072;3.712;2023-06-22T08:28:09;28.80;99.90
22925;DHT22;11628;51.072;3.712;2023-06-22T08:30:35;28.80;99.90
22925;DHT22;11628;51.072;3.712;2023-06-22T08:33:01;28.70;99.90
22925;DHT22;11628;51.072;3.712;2023-06-22T08:35:27;28.70;99.90
22925;DHT22;11628;51.072;3.712;2023-06-22T08:37:52;28.80;99.90
22925;DHT22;11628;51.072;3.712;2023-06-22T08:40:21;28.70;99.90
22925;DHT22;11628;51.072;3.712;2023-06-22T08:42:47;28.40;99.90
22925;DHT22;11628;51.072;3.712;2023-06-22T08:45:13;28.20;99.90
22925;DHT22;11628;51.072;3.712;2023-06-22T08:47:40;27.90;99.90
22925;DHT22;11628;51.072;3.712;2023-06-22T08:50:07;27.80;99.90
22925;DHT22;11628;51.072;3.712;2023-06-22T08:52:34;27.90;99.90
22925;DHT22;11628;51.072;3.712;2023-06-22T08:55:00;27.90;99.90
22925;DHT22;11628;51.072;3.712;2023-06-22T08:57:27;27.80;99.90
22925;DHT22;11628;51.072;3.712;2023-06-22T08:59:53;27.80;99.90
22925;DHT22;11628;51.072;3.712;2023-06-22T09:02:19;27.80;99.90
22925;DHT22;11628;51.072;3.712;2023-06-22T09:04:46;27.80;99.90
22925;DHT22;11628;51.072;3.712;2023-06-22T09:07:12;27.80;99.90
22925;DHT22;11628;51.072;3.712;2023-06-22T09:09:37;27.70;99.90
22925;DHT22;11628;51.072;3.712;2023-06-22T09:12:04;27.50;99.90
22925;DHT22;11628;51.072;3.712;2023-06-22T09:14:29;27.50;99.90
22925;DHT22;11628;51.072;3.712;2023-06-22T09:16:55;27.30;99.90
22925;DHT22;11628;51.072;3.712;2023-06-22T09:19:21;27.10;99.90
22925;DHT22;11628;51.072;3.712;2023-06-22T09:21:47;26.90;99.90
22925;DHT22;11628;51.072;3.712;2023-06-22T09:24:12;26.80;99.90
22925;DHT22;11628;51.072;3.712;2023-06-22T09:26:39;26.70;99.90
22925;DHT22;11628;51.072;3.712;2023-06-22T09:29:05;26.60;99.90
22925;DHT22;11628;51.072;3.712;2023-06-22T09:31:31;26.40;99.90
22925;DHT22;11628;51.072;3.712;2023-06-22T09:33:57;26.40;99.90
22925;DHT22;11628;51.072;3.712;2023-06-22T09:36:23;26.30;99.90
22925;DHT22;11628;51.072;3.712;2023-06-22T09:38:49;26.30;99.90
22925;DHT22;11628;51.072;3.712;2023-06-22T09:41:20;26.20;99.90
22925;DHT22;11628;51.072;3.712;2023-06-22T09:43:46;26.30;99.90
22925;DHT22;11628;51.072;3.712;2023-06-22T09:46:15;26.20;99.90
22925;DHT22;11628;51.072;3.712;2023-06-22T09:48:40;26.20;99.90
22925;DHT22;11628;51.072;3.712;2023-06-22T09:51:06;26.20;99.90
22925;DHT22;11628;51.072;3.712;2023-06-22T09:53:32;26.10;99.90
22925;DHT22;11628;51.072;3.712;2023-06-22T09:55:57;26.10;99.90
22925;DHT22;11628;51.072;3.712;2023-06-22T09:58:23;26.00;99.90
22925;DHT22;11628;51.072;3.712;2023-06-22T10:00:49;26.10;99.90
22925;DHT22;11628;51.072;3.712;2023-06-22T10:03:14;26.10;99.90
22925;DHT22;11628;51.072;3.712;2023-06-22T10:05:40;26.10;99.90
22925;DHT22;11628;51.072;3.712;2023-06-22T10:08:06;26.10;99.90
22925;DHT22;11628;51.072;3.712;2023-06-22T10:10:33;26.10;99.90
22925;DHT22;11628;51.072;3.712;2023-06-22T10:13:07;26.10;99.90
22925;DHT22;11628;51.072;3.712;2023-06-22T10:15:34;26.10;99.90
22925;DHT22;11628;51.072;3.712;2023-06-22T10:17:59;26.00;99.90
22925;DHT22;11628;51.072;3.712;2023-06-22T10:20:25;26.00;99.90
22925;DHT22;11628;51.072;3.712;2023-06-22T10:22:51;26.00;99.90
22925;DHT22;11628;51.072;3.712;2023-06-22T10:25:17;26.00;99.90
22925;DHT22;11628;51.072;3.712;2023-06-22T10:27:43;25.90;99.90
22925;DHT22;11628;51.072;3.712;2023-06-22T10:30:14;25.80;99.90
22925;DHT22;11628;51.072;3.712;2023-06-22T10:32:41;25.70;99.90
22925;DHT22;11628;51.072;3.712;2023-06-22T10:35:10;25.70;99.90
22925;DHT22;11628;51.072;3.712;2023-06-22T10:37:38;25.70;99.90
22925;DHT22;11628;51.072;3.712;2023-06-22T10:40:05;25.70;99.90
22925;DHT22;11628;51.072;3.712;2023-06-22T10:42:31;25.70;99.90
22925;DHT22;11628;51.072;3.712;2023-06-22T10:44:56;25.70;99.90
22925;DHT22;11628;51.072;3.712;2023-06-22T10:47:22;25.70;99.90
22925;DHT22;11628;51.072;3.712;2023-06-22T10:49:48;25.80;99.90
22925;DHT22;11628;51.072;3.712;2023-06-22T10:52:13;25.80;99.90
22925;DHT22;11628;51.072;3.712;2023-06-22T10:54:40;25.90;99.90
22925;DHT22;11628;51.072;3.712;2023-06-22T10:57:06;26.00;99.90
22925;DHT22;11628;51.072;3.712;2023-06-22T10:59:32;26.10;99.90
22925;DHT22;11628;51.072;3.712;2023-06-22T11:01:58;26.10;99.90
22925;DHT22;11628;51.072;3.712;2023-06-22T11:04:24;26.10;99.90
22925;DHT22;11628;51.072;3.712;2023-06-22T11:06:51;26.10;99.90
22925;DHT22;11628;51.072;3.712;2023-06-22T11:09:17;26.20;99.90
22925;DHT22;11628;51.072;3.712;2023-06-22T11:11:46;26.30;99.90
22925;DHT22;11628;51.072;3.712;2023-06-22T11:14:12;26.40;99.90
22925;DHT22;11628;51.072;3.712;2023-06-22T11:16:38;26.40;99.90
22925;DHT22;11628;51.072;3.712;2023-06-22T11:19:05;26.30;99.90
22925;DHT22;11628;51.072;3.712;2023-06-22T11:21:31;26.10;99.90
22925;DHT22;11628;51.072;3.712;2023-06-22T11:23:57;26.00;99.90
22925;DHT22;11628;51.072;3.712;2023-06-22T11:26:24;25.80;99.90
22925;DHT22;11628;51.072;3.712;2023-06-22T11:28:50;25.80;99.90
22925;DHT22;11628;51.072;3.712;2023-06-22T11:31:16;25.70;99.90
22925;DHT22;11628;51.072;3.712;2023-06-22T11:33:42;25.50;99.90
22925;DHT22;11628;51.072;3.712;2023-06-22T11:36:07;25.40;99.90
22925;DHT22;11628;51.072;3.712;2023-06-22T11:38:34;25.30;99.90
22925;DHT22;11628;51.072;3.712;2023-06-22T11:41:02;25.30;99.90
22925;DHT22;11628;51.072;3.712;2023-06-22T11:43:27;25.20;99.90
22925;DHT22;11628;51.072;3.712;2023-06-22T11:45:53;25.10;99.90
22925;DHT22;11628;51.072;3.712;2023-06-22T11:48:21;25.20;99.90
22925;DHT22;11628;51.072;3.712;2023-06-22T11:50:47;25.10;99.90
22925;DHT22;11628;51.072;3.712;2023-06-22T11:53:12;25.20;99.90
22925;DHT22;11628;51.072;3.712;2023-06-22T11:55:41;25.30;99.90
22925;DHT22;11628;51.072;3.712;2023-06-22T11:58:07;25.30;99.90
22925;DHT22;11628;51.072;3.712;2023-06-22T12:00:33;25.30;99.90
22925;DHT22;11628;51.072;3.712;2023-06-22T12:02:59;25.40;99.90
22925;DHT22;11628;51.072;3.712;2023-06-22T12:05:25;25.40;99.90
22925;DHT22;11628;51.072;3.712;2023-06-22T12:07:53;25.50;99.90
22925;DHT22;11628;51.072;3.712;2023-06-22T12:10:19;25.40;99.90
22925;DHT22;11628;51.072;3.712;2023-06-22T12:12:45;25.50;99.90
22925;DHT22;11628;51.072;3.712;2023-06-22T12:15:11;25.60;99.90
22925;DHT22;11628;51.072;3.712;2023-06-22T12:17:36;25.60;99.90
22925;DHT22;11628;51.072;3.712;2023-06-22T12:20:02;25.90;99.90
22925;DHT22;11628;51.072;3.712;2023-06-22T12:22:32;26.00;99.90
22925;DHT22;11628;51.072;3.712;2023-06-22T12:24:57;26.20;99.90
22925;DHT22;11628;51.072;3.712;2023-06-22T12:27:24;26.40;99.90
22925;DHT22;11628;51.072;3.712;2023-06-22T12:29:50;26.30;99.90
22925;DHT22;11628;51.072;3.712;2023-06-22T12:32:15;26.20;99.90
22925;DHT22;11628;51.072;3.712;2023-06-22T12:34:42;26.20;99.90
22925;DHT22;11628;51.072;3.712;2023-06-22T12:37:08;26.10;99.90
22925;DHT22;11628;51.072;3.712;2023-06-22T12:39:34;26.10;99.90
22925;DHT22;11628;51.072;3.712;2023-06-22T12:42:00;26.00;99.90
22925;DHT22;11628;51.072;3.712;2023-06-22T12:44:26;25.90;99.90
22925;DHT22;11628;51.072;3.712;2023-06-22T12:46:52;26.00;99.90
22925;DHT22;11628;51.072;3.712;2023-06-22T12:49:17;25.90;99.90
22925;DHT22;11628;51.072;3.712;2023-06-22T12:51:43;25.90;99.90
22925;DHT22;11628;51.072;3.712;2023-06-22T12:54:10;25.80;99.90
22925;DHT22;11628;51.072;3.712;2023-06-22T12:56:36;25.90;99.90
22925;DHT22;11628;51.072;3.712;2023-06-22T12:59:03;25.90;99.90
22925;DHT22;11628;51.072;3.712;2023-06-22T13:01:32;25.90;99.90
22925;DHT22;11628;51.072;3.712;2023-06-22T13:03:58;26.00;99.90
22925;DHT22;11628;51.072;3.712;2023-06-22T13:06:25;26.10;99.90
22925;DHT22;11628;51.072;3.712;2023-06-22T13:08:51;26.30;99.90
22925;DHT22;11628;51.072;3.712;2023-06-22T13:11:16;26.40;99.90
22925;DHT22;11628;51.072;3.712;2023-06-22T13:13:43;26.40;99.90
22925;DHT22;11628;51.072;3.712;2023-06-22T13:16:08;26.40;99.90
22925;DHT22;11628;51.072;3.712;2023-06-22T13:18:34;26.40;99.90
22925;DHT22;11628;51.072;3.712;2023-06-22T13:21:04;26.60;99.90
22925;DHT22;11628;51.072;3.712;2023-06-22T13:23:30;26.70;99.90
22925;DHT22;11628;51.072;3.712;2023-06-22T13:25:57;27.00;99.90
22925;DHT22;11628;51.072;3.712;2023-06-22T13:28:22;27.30;99.90
22925;DHT22;11628;51.072;3.712;2023-06-22T13:30:48;27.50;99.90
22925;DHT22;11628;51.072;3.712;2023-06-22T13:33:14;27.80;99.90
22925;DHT22;11628;51.072;3.712;2023-06-22T13:35:40;27.90;99.90
22925;DHT22;11628;51.072;3.712;2023-06-22T13:38:08;28.20;99.90
22925;DHT22;11628;51.072;3.712;2023-06-22T13:40:35;28.50;99.90
22925;DHT22;11628;51.072;3.712;2023-06-22T13:43:00;28.80;99.90
22925;DHT22;11628;51.072;3.712;2023-06-22T13:45:26;28.90;99.90
22925;DHT22;11628;51.072;3.712;2023-06-22T13:47:53;29.10;99.90
22925;DHT22;11628;51.072;3.712;2023-06-22T13:50:18;29.30;99.90
22925;DHT22;11628;51.072;3.712;2023-06-22T13:52:44;29.40;99.90
22925;DHT22;11628;51.072;3.712;2023-06-22T13:55:10;29.40;99.90
22925;DHT22;11628;51.072;3.712;2023-06-22T13:57:36;29.50;99.90
22925;DHT22;11628;51.072;3.712;2023-06-22T14:00:04;29.80;99.90
22925;DHT22;11628;51.072;3.712;2023-06-22T14:02:33;30.20;99.90
22925;DHT22;11628;51.072;3.712;2023-06-22T14:04:59;30.50;99.90
22925;DHT22;11628;51.072;3.712;2023-06-22T14:07:25;30.60;99.90
22925;DHT22;11628;51.072;3.712;2023-06-22T14:09:51;30.40;99.90
22925;DHT22;11628;51.072;3.712;2023-06-22T14:12:17;30.40;99.90
22925;DHT22;11628;51.072;3.712;2023-06-22T14:14:46;30.10;99.90
22925;DHT22;11628;51.072;3.712;2023-06-22T14:17:11;29.80;99.90
22925;DHT22;11628;51.072;3.712;2023-06-22T14:19:37;29.70;99.90
22925;DHT22;11628;51.072;3.712;2023-06-22T14:22:03;29.40;99.90
22925;DHT22;11628;51.072;3.712;2023-06-22T14:24:29;29.20;99.90
22925;DHT22;11628;51.072;3.712;2023-06-22T14:26:55;29.00;99.90
22925;DHT22;11628;51.072;3.712;2023-06-22T14:29:21;29.20;99.90
22925;DHT22;11628;51.072;3.712;2023-06-22T14:31:48;29.30;99.90
22925;DHT22;11628;51.072;3.712;2023-06-22T14:34:15;29.20;99.90
22925;DHT22;11628;51.072;3.712;2023-06-22T14:36:41;29.40;99.90
22925;DHT22;11628;51.072;3.712;2023-06-22T14:39:08;29.70;99.90
22925;DHT22;11628;51.072;3.712;2023-06-22T14:41:34;29.90;99.90
22925;DHT22;11628;51.072;3.712;2023-06-22T14:43:59;30.10;99.90
22925;DHT22;11628;51.072;3.712;2023-06-22T14:46:25;30.50;99.90
22925;DHT22;11628;51.072;3.712;2023-06-22T14:48:51;30.80;99.90
22925;DHT22;11628;51.072;3.712;2023-06-22T14:51:16;30.80;99.90
22925;DHT22;11628;51.072;3.712;2023-06-22T14:53:45;30.70;99.90
22925;DHT22;11628;51.072;3.712;2023-06-22T14:56:11;30.40;99.90
22925;DHT22;11628;51.072;3.712;2023-06-22T14:58:39;30.40;99.90
22925;DHT22;11628;51.072;3.712;2023-06-22T15:01:05;30.50;99.90
22925;DHT22;11628;51.072;3.712;2023-06-22T15:03:34;30.50;99.90
22925;DHT22;11628;51.072;3.712;2023-06-22T15:06:01;30.60;99.90
22925;DHT22;11628;51.072;3.712;2023-06-22T15:08:28;30.70;99.90
22925;DHT22;11628;51.072;3.712;2023-06-22T15:10:54;30.80;99.90
22925;DHT22;11628;51.072;3.712;2023-06-22T15:13:21;30.80;99.90
22925;DHT22;11628;51.072;3.712;2023-06-22T15:15:48;30.80;99.90
22925;DHT22;11628;51.072;3.712;2023-06-22T15:18:14;30.80;99.90
22925;DHT22;11628;51.072;3.712;2023-06-22T15:20:40;30.80;99.90
22925;DHT22;11628;51.072;3.712;2023-06-22T15:23:07;30.70;99.90
22925;DHT22;11628;51.072;3.712;2023-06-22T15:25:34;30.70;99.90
22925;DHT22;11628;51.072;3.712;2023-06-22T15:27:59;30.80;99.90
22925;DHT22;11628;51.072;3.712;2023-06-22T15:30:25;31.00;99.90
22925;DHT22;11628;51.072;3.712;2023-06-22T15:32:51;31.20;99.90
22925;DHT22;11628;51.072;3.712;2023-06-22T15:35:17;31.20;99.90
22925;DHT22;11628;51.072;3.712;2023-06-22T15:37:44;31.10;99.90
22925;DHT22;11628;51.072;3.712;2023-06-22T15:40:11;31.10;99.90
22925;DHT22;11628;51.072;3.712;2023-06-22T15:42:36;30.90;99.90
22925;DHT22;11628;51.072;3.712;2023-06-22T15:45:03;30.70;99.90
22925;DHT22;11628;51.072;3.712;2023-06-22T15:47:29;30.50;99.90
22925;DHT22;11628;51.072;3.712;2023-06-22T15:49:55;30.20;99.90
22925;DHT22;11628;51.072;3.712;2023-06-22T15:52:21;30.00;99.90
22925;DHT22;11628;51.072;3.712;2023-06-22T15:54:47;29.80;99.90
22925;DHT22;11628;51.072;3.712;2023-06-22T15:57:13;29.40;99.90
22925;DHT22;11628;51.072;3.712;2023-06-22T15:59:39;29.20;99.90
22925;DHT22;11628;51.072;3.712;2023-06-22T16:02:06;29.00;99.90
22925;DHT22;11628;51.072;3.712;2023-06-22T16:04:32;28.80;99.90
22925;DHT22;11628;51.072;3.712;2023-06-22T16:06:57;28.70;99.90
22925;DHT22;11628;51.072;3.712;2023-06-22T16:09:23;28.60;99.90
22925;DHT22;11628;51.072;3.712;2023-06-22T16:11:49;28.40;99.90
22925;DHT22;11628;51.072;3.712;2023-06-22T16:14:15;28.20;99.90
22925;DHT22;11628;51.072;3.712;2023-06-22T16:16:41;28.10;99.90
22925;DHT22;11628;51.072;3.712;2023-06-22T16:19:06;27.90;99.90
22925;DHT22;11628;51.072;3.712;2023-06-22T16:21:33;27.70;99.90
22925;DHT22;11628;51.072;3.712;2023-06-22T16:23:58;27.70;99.90
22925;DHT22;11628;51.072;3.712;2023-06-22T16:26:24;27.70;99.90
22925;DHT22;11628;51.072;3.712;2023-06-22T16:28:50;27.70;99.90
22925;DHT22;11628;51.072;3.712;2023-06-22T16:31:16;27.70;99.90
22925;DHT22;11628;51.072;3.712;2023-06-22T16:33:42;27.80;99.90
22925;DHT22;11628;51.072;3.712;2023-06-22T16:36:16;27.80;99.90
22925;DHT22;11628;51.072;3.712;2023-06-22T16:38:42;27.80;99.90
22925;DHT22;11628;51.072;3.712;2023-06-22T16:41:08;27.80;99.90
22925;DHT22;11628;51.072;3.712;2023-06-22T16:43:37;27.80;99.90
22925;DHT22;11628;51.072;3.712;2023-06-22T16:46:05;27.80;99.90
22925;DHT22;11628;51.072;3.712;2023-06-22T16:48:31;27.90;99.90
22925;DHT22;11628;51.072;3.712;2023-06-22T16:50:57;27.80;99.90
22925;DHT22;11628;51.072;3.712;2023-06-22T16:53:23;27.80;99.90
22925;DHT22;11628;51.072;3.712;2023-06-22T16:55:49;27.70;99.90
22925;DHT22;11628;51.072;3.712;2023-06-22T16:58:17;27.70;99.90
22925;DHT22;11628;51.072;3.712;2023-06-22T17:00:47;27.80;99.90
22925;DHT22;11628;51.072;3.712;2023-06-22T17:03:18;27.80;99.90
22925;DHT22;11628;51.072;3.712;2023-06-22T17:05:44;27.80;99.90
22925;DHT22;11628;51.072;3.712;2023-06-22T17:08:12;27.80;99.90
22925;DHT22;11628;51.072;3.712;2023-06-22T17:10:39;27.70;99.90
22925;DHT22;11628;51.072;3.712;2023-06-22T17:13:06;27.60;99.90